createdAt,value
2018-12-11T00:01:34.607Z,101162.52
2018-12-11T00:03:42.709Z,101172.90
2018-12-11T00:05:49.509Z,101174.66
2018-12-11T00:07:55.726Z,101173.83
2018-12-11T00:10:02.224Z,101179.02
2018-12-11T00:12:08.602Z,101171.66
2018-12-11T00:14:14.729Z,101178.59
2018-12-11T00:16:21.494Z,101179.89
2018-12-11T00:18:33.765Z,101179.89
2018-12-11T00:20:40.714Z,101182.06
2018-12-11T00:22:47.331Z,101182.06
2018-12-11T00:24:53.568Z,101181.20
2018-12-11T00:27:00.623Z,101184.23
2018-12-11T00:29:12.358Z,101188.10
2018-12-11T00:31:18.596Z,101189.41
2018-12-11T00:35:41.879Z,101182.84
2018-12-11T00:37:47.973Z,101184.58
2018-12-11T00:39:54.622Z,101181.95
2018-12-11T00:42:01.361Z,101183.64
2018-12-11T00:44:08.710Z,101184.05
2018-12-11T00:46:15.473Z,101182.31
2018-12-11T00:48:21.579Z,101177.08
2018-12-11T00:50:27.801Z,101181.84
2018-12-11T00:52:34.174Z,101178.77
2018-12-11T00:54:40.343Z,101182.24
2018-12-11T00:56:50.592Z,101180.08
2018-12-11T00:59:00.195Z,101180.51
2018-12-11T01:01:07.288Z,101178.34
2018-12-11T01:03:15.043Z,101175.73
2018-12-11T01:05:21.221Z,101169.23
2018-12-11T01:07:27.364Z,101169.63
2018-12-11T01:09:33.481Z,101172.66
2018-12-11T01:11:39.747Z,101175.66
2018-12-11T01:13:46.035Z,101178.70
2018-12-11T01:15:53.329Z,101183.91
2018-12-11T01:17:59.856Z,101181.30
2018-12-11T01:20:06.892Z,101182.13
2018-12-11T01:22:13.047Z,101187.77
2018-12-11T01:24:19.225Z,101186.47
2018-12-11T01:26:25.421Z,101189.50
2018-12-11T01:28:31.703Z,101184.30
2018-12-11T01:30:37.790Z,101172.98
2018-12-11T01:35:03.548Z,101181.26
2018-12-11T01:37:12.168Z,101176.48
2018-12-11T01:39:34.100Z,101179.97
2018-12-11T01:41:47.014Z,101181.30
2018-12-11T01:43:53.119Z,101177.83
2018-12-11T01:45:59.267Z,101184.80
2018-12-11T01:48:06.283Z,101180.47
2018-12-11T01:50:12.360Z,101185.24
2018-12-11T01:52:18.898Z,101183.51
2018-12-11T01:54:27.329Z,101185.24
2018-12-11T01:56:34.845Z,101188.72
2018-12-11T01:58:41.262Z,101195.22
2018-12-11T02:00:47.514Z,101195.66
2018-12-11T02:02:53.605Z,101181.77
2018-12-11T02:04:59.815Z,101190.02
2018-12-11T02:07:06.987Z,101190.88
2018-12-11T02:09:13.647Z,101191.75
2018-12-11T02:11:20.085Z,101189.58
2018-12-11T02:13:26.162Z,101191.71
2018-12-11T02:15:32.617Z,101189.11
2018-12-11T02:17:38.786Z,101196.05
2018-12-11T02:19:45.577Z,101190.41
2018-12-11T02:21:51.842Z,101190.41
2018-12-11T02:23:58.709Z,101192.58
2018-12-11T02:26:04.771Z,101200.39
2018-12-11T02:28:10.922Z,101194.31
2018-12-11T02:30:19.328Z,101188.24
2018-12-11T02:32:25.928Z,101188.20
2018-12-11T02:34:32.079Z,101183.00
2018-12-11T02:36:38.161Z,101187.77
2018-12-11T02:38:44.896Z,101190.80
2018-12-11T02:40:51.048Z,101189.07
2018-12-11T02:42:57.172Z,101184.73
2018-12-11T02:45:04.022Z,101189.94
2018-12-11T02:47:10.379Z,101188.20
2018-12-11T02:49:17.511Z,101189.51
2018-12-11T02:51:24.017Z,101186.03
2018-12-11T02:53:30.147Z,101195.15
2018-12-11T02:55:36.628Z,101192.11
2018-12-11T02:57:42.780Z,101191.67
2018-12-11T02:59:49.900Z,101185.60
2018-12-11T03:01:57.027Z,101191.67
2018-12-11T03:04:03.297Z,101196.45
2018-12-11T03:06:09.460Z,101194.28
2018-12-11T03:08:15.670Z,101194.67
2018-12-11T03:10:23.303Z,101198.58
2018-12-11T03:12:29.448Z,101193.37
2018-12-11T03:14:35.542Z,101193.81
2018-12-11T03:16:41.688Z,101197.31
2018-12-11T03:18:47.833Z,101197.31
2018-12-11T03:20:53.961Z,101195.58
2018-12-11T03:23:00.509Z,101191.67
2018-12-11T03:25:06.923Z,101192.97
2018-12-11T03:27:13.896Z,101187.77
2018-12-11T03:29:20.781Z,101190.38
2018-12-11T03:31:27.683Z,101189.91
2018-12-11T03:33:33.973Z,101193.80
2018-12-11T03:35:40.578Z,101200.75
2018-12-11T03:37:46.710Z,101197.28
2018-12-11T03:39:52.804Z,101194.24
2018-12-11T03:41:59.396Z,101201.19
2018-12-11T03:44:06.002Z,101195.97
2018-12-11T03:46:12.215Z,101196.84
2018-12-11T03:48:18.471Z,101200.75
2018-12-11T03:50:24.818Z,101199.01
2018-12-11T03:52:31.189Z,101195.55
2018-12-11T03:54:37.609Z,101190.77
2018-12-11T03:56:44.924Z,101189.03
2018-12-11T03:58:51.075Z,101183.83
2018-12-11T04:00:57.235Z,101180.36
2018-12-11T04:03:04.013Z,101189.47
2018-12-11T04:05:10.223Z,101199.48
2018-12-11T04:07:16.447Z,101198.22
2018-12-11T04:09:22.614Z,101182.64
2018-12-11T04:11:28.868Z,101181.34
2018-12-11T04:13:35.134Z,101186.55
2018-12-11T04:15:42.376Z,101185.28
2018-12-11T04:17:49.651Z,101184.84
2018-12-11T04:19:56.337Z,101188.31
2018-12-11T04:22:03.187Z,101182.28
2018-12-11T04:24:09.428Z,101183.14
2018-12-11T04:26:17.680Z,101185.78
2018-12-11T04:28:24.777Z,101187.08
2018-12-11T04:30:30.854Z,101185.34
2018-12-11T04:32:36.992Z,101182.34
2018-12-11T04:37:00.364Z,101188.88
2018-12-11T04:39:08.118Z,101197.58
2018-12-11T04:41:14.247Z,101194.58
2018-12-11T04:43:20.387Z,101193.70
2018-12-11T04:45:26.651Z,101201.95
2018-12-11T04:47:32.732Z,101198.94
2018-12-11T04:49:40.279Z,101196.36
2018-12-11T04:51:46.476Z,101188.12
2018-12-11T04:53:52.778Z,101190.31
2018-12-11T04:55:59.260Z,101195.11
2018-12-11T04:58:05.776Z,101189.94
2018-12-11T05:00:12.246Z,101188.63
2018-12-11T05:02:18.314Z,101189.09
2018-12-11T05:04:24.409Z,101201.22
2018-12-11T05:06:30.490Z,101205.98
2018-12-11T05:08:36.666Z,101199.48
2018-12-11T05:10:43.021Z,101200.80
2018-12-11T05:12:56.218Z,101198.63
2018-12-11T05:15:02.283Z,101199.48
2018-12-11T05:17:08.466Z,101197.34
2018-12-11T05:19:14.626Z,101191.27
2018-12-11T05:21:21.056Z,101186.10
2018-12-11T05:23:27.099Z,101196.95
2018-12-11T05:25:33.265Z,101196.95
2018-12-11T05:27:39.829Z,101200.00
2018-12-11T05:29:48.602Z,101192.22
2018-12-11T05:31:56.105Z,101188.34
2018-12-11T05:34:02.322Z,101190.93
2018-12-11T05:36:08.602Z,101188.78
2018-12-11T05:40:31.017Z,101194.88
2018-12-11T05:42:37.107Z,101192.70
2018-12-11T05:44:43.195Z,101193.58
2018-12-11T05:46:49.428Z,101193.17
2018-12-11T05:48:56.475Z,101187.53
2018-12-11T05:51:03.148Z,101181.90
2018-12-11T05:53:09.274Z,101190.15
2018-12-11T05:55:15.478Z,101189.70
2018-12-11T05:57:21.643Z,101189.71
2018-12-11T05:59:31.375Z,101196.66
2018-12-11T06:01:37.498Z,101194.04
2018-12-11T06:03:43.672Z,101204.02
2018-12-11T06:05:50.437Z,101199.66
2018-12-11T06:07:56.526Z,101193.63
2018-12-11T06:10:02.643Z,101191.02
2018-12-11T06:12:08.822Z,101197.09
2018-12-11T06:14:14.947Z,101195.80
2018-12-11T06:16:21.589Z,101201.85
2018-12-11T06:18:27.717Z,101198.38
2018-12-11T06:20:34.552Z,101199.25
2018-12-11T06:22:41.535Z,101196.64
2018-12-11T06:24:47.655Z,101198.39
2018-12-11T06:26:54.526Z,101195.80
2018-12-11T06:29:00.768Z,101195.37
2018-12-11T06:31:06.881Z,101195.78
2018-12-11T06:33:14.202Z,101198.38
2018-12-11T06:35:20.333Z,101204.02
2018-12-11T06:37:26.553Z,101203.13
2018-12-11T06:39:32.633Z,101200.98
2018-12-11T06:41:38.813Z,101208.74
2018-12-11T06:43:45.280Z,101213.09
2018-12-11T06:45:51.382Z,101210.48
2018-12-11T06:47:57.502Z,101217.40
2018-12-11T06:50:03.675Z,101220.86
2018-12-11T06:52:09.812Z,101221.72
2018-12-11T06:54:15.957Z,101216.52
2018-12-11T06:56:22.172Z,101216.07
2018-12-11T06:58:28.328Z,101219.52
2018-12-11T07:00:42.589Z,101219.08
2018-12-11T07:02:48.964Z,101217.75
2018-12-11T07:07:11.540Z,101213.84
2018-12-11T07:09:18.569Z,101216.42
2018-12-11T07:11:25.329Z,101216.42
2018-12-11T07:13:32.138Z,101225.52
2018-12-11T07:15:38.327Z,101220.33
2018-12-11T07:17:44.573Z,101225.06
2018-12-11T07:19:50.818Z,101231.56
2018-12-11T07:21:57.544Z,101238.53
2018-12-11T07:24:03.690Z,101237.66
2018-12-11T07:26:10.036Z,101235.49
2018-12-11T07:28:16.222Z,101240.25
2018-12-11T07:30:22.362Z,101244.59
2018-12-11T07:32:31.000Z,101235.05
2018-12-11T07:34:37.243Z,101242.42
2018-12-11T07:36:43.442Z,101245.01
2018-12-11T07:38:49.521Z,101247.61
2018-12-11T07:40:56.018Z,101244.14
2018-12-11T07:43:02.119Z,101244.61
2018-12-11T07:45:08.329Z,101248.94
2018-12-11T07:47:14.508Z,101249.37
2018-12-11T07:49:20.579Z,101245.02
2018-12-11T07:51:26.741Z,101239.86
2018-12-11T07:53:32.804Z,101241.99
2018-12-11T07:55:39.102Z,101238.95
2018-12-11T07:57:45.655Z,101241.99
2018-12-11T07:59:52.659Z,101242.44
2018-12-11T08:01:59.542Z,101236.38
2018-12-11T08:04:05.985Z,101238.11
2018-12-11T08:06:12.272Z,101234.61
2018-12-11T08:08:19.606Z,101232.89
2018-12-11T08:10:25.734Z,101233.30
2018-12-11T08:12:32.047Z,101229.81
2018-12-11T08:14:38.275Z,101234.59
2018-12-11T08:16:46.441Z,101244.53
2018-12-11T08:18:53.423Z,101241.50
2018-12-11T08:21:00.402Z,101244.97
2018-12-11T08:23:31.524Z,101249.74
2018-12-11T08:25:40.892Z,101242.34
2018-12-11T08:27:47.130Z,101247.55
2018-12-11T08:30:00.049Z,101250.15
2018-12-11T08:32:13.508Z,101247.14
2018-12-11T08:34:22.113Z,101253.16
2018-12-11T08:36:41.735Z,101245.80
2018-12-11T08:38:55.939Z,101255.73
2018-12-11T08:41:02.486Z,101250.11
2018-12-11T08:43:11.944Z,101250.08
2018-12-11T08:45:29.307Z,101253.55
2018-12-11T08:47:35.987Z,101248.79
2018-12-11T08:49:47.275Z,101250.06
2018-12-11T08:51:57.767Z,101244.43
2018-12-11T08:54:07.069Z,101243.56
2018-12-11T08:56:14.683Z,101249.61
2018-12-11T08:58:20.949Z,101249.17
2018-12-11T09:02:55.765Z,101247.45
2018-12-11T09:05:05.725Z,101243.95
2018-12-11T09:07:12.563Z,101259.96
2018-12-11T09:09:18.779Z,101251.27
2018-12-11T09:11:25.139Z,101248.66
2018-12-11T09:13:31.562Z,101243.86
2018-12-11T09:15:41.881Z,101246.00
2018-12-11T09:17:51.504Z,101243.41
2018-12-11T09:19:57.840Z,101237.73
2018-12-11T09:22:04.001Z,101241.20
2018-12-11T09:24:16.467Z,101243.77
2018-12-11T09:26:26.622Z,101249.38
2018-12-11T09:28:33.349Z,101250.67
2018-12-11T09:30:39.657Z,101245.91
2018-12-11T09:32:46.637Z,101246.77
2018-12-11T09:34:59.494Z,101249.38
2018-12-11T09:37:05.737Z,101246.77
2018-12-11T09:39:12.484Z,101246.38
2018-12-11T09:41:58.395Z,101252.02
2018-12-11T09:44:21.264Z,101247.70
2018-12-11T09:46:28.849Z,101249.91
2018-12-11T09:48:35.194Z,101246.00
2018-12-11T09:50:45.795Z,101243.83
2018-12-11T09:52:54.554Z,101243.41
2018-12-11T09:55:02.382Z,101245.13
2018-12-11T09:57:08.600Z,101241.70
2018-12-11T09:59:23.234Z,101246.03
2018-12-11T10:01:27.516Z,101256.01
2018-12-11T10:03:34.285Z,101249.50
2018-12-11T10:05:41.584Z,101246.47
2018-12-11T10:07:47.614Z,101248.17
2018-12-11T10:09:53.749Z,101248.17
2018-12-11T10:11:59.874Z,101248.58
2018-12-11T10:14:06.820Z,101252.45
2018-12-11T10:16:12.970Z,101258.48
2018-12-11T10:18:19.171Z,101248.91
2018-12-11T10:20:25.567Z,101244.57
2018-12-11T10:22:32.103Z,101248.44
2018-12-11T10:24:38.482Z,101249.70
2018-12-11T10:26:45.020Z,101250.14
2018-12-11T10:28:51.503Z,101244.89
2018-12-11T10:30:57.615Z,101240.98
2018-12-11T10:33:03.904Z,101243.11
2018-12-11T10:35:10.156Z,101243.50
2018-12-11T10:37:16.296Z,101238.21
2018-12-11T10:39:22.915Z,101240.33
2018-12-11T10:41:59.408Z,101235.95
2018-12-11T10:44:28.153Z,101227.70
2018-12-11T10:46:36.997Z,101218.53
2018-12-11T10:48:43.523Z,101218.48
2018-12-11T10:50:49.738Z,101215.81
2018-12-11T10:52:56.362Z,101209.69
2018-12-11T10:55:02.902Z,101209.63
2018-12-11T10:57:09.395Z,101207.88
2018-12-11T10:59:15.535Z,101202.24
2018-12-11T11:01:26.618Z,101202.25
2018-12-11T11:03:32.945Z,101197.95
2018-12-11T11:05:39.349Z,101198.78
2018-12-11T11:07:45.781Z,101197.91
2018-12-11T11:09:51.863Z,101190.03
2018-12-11T11:11:58.009Z,101189.55
2018-12-11T11:14:04.600Z,101189.05
2018-12-11T11:16:15.090Z,101186.86
2018-12-11T11:18:21.203Z,101195.05
2018-12-11T11:20:28.466Z,101188.49
2018-12-11T11:22:34.839Z,101190.23
2018-12-11T11:24:40.941Z,101191.53
2018-12-11T11:26:47.352Z,101195.43
2018-12-11T11:28:54.462Z,101187.17
2018-12-11T11:31:00.741Z,101179.73
2018-12-11T11:33:07.383Z,101189.70
2018-12-11T11:35:13.592Z,101186.61
2018-12-11T11:37:19.689Z,101190.08
2018-12-11T11:39:25.797Z,101185.25
2018-12-11T11:41:54.358Z,101182.19
2018-12-11T11:44:22.649Z,101181.34
2018-12-11T11:46:28.778Z,101178.35
2018-12-11T11:48:34.875Z,101181.39
2018-12-11T11:50:41.231Z,101178.80
2018-12-11T11:52:48.187Z,101178.37
2018-12-11T11:54:54.399Z,101174.08
2018-12-11T11:57:02.159Z,101179.85
2018-12-11T11:59:31.049Z,101174.77
2018-12-11T12:02:00.459Z,101178.41
2018-12-11T12:04:08.537Z,101175.86
2018-12-11T12:06:14.790Z,101175.48
2018-12-11T12:08:21.289Z,101183.34
2018-12-11T12:10:29.783Z,101179.50
2018-12-11T12:12:36.916Z,101182.63
2018-12-11T12:14:48.938Z,101176.60
2018-12-11T12:16:51.259Z,101187.47
2018-12-11T12:18:57.829Z,101180.52
2018-12-11T12:21:04.402Z,101177.91
2018-12-11T12:23:10.592Z,101179.21
2018-12-11T12:25:17.374Z,101177.47
2018-12-11T12:27:23.718Z,101183.50
2018-12-11T12:29:29.988Z,101176.94
2018-12-11T12:31:36.181Z,101177.77
2018-12-11T12:33:42.407Z,101172.98
2018-12-11T12:35:48.954Z,101170.42
2018-12-11T12:37:55.125Z,101168.20
2018-12-11T12:40:01.520Z,101166.03
2018-12-11T12:42:08.481Z,101157.30
2018-12-11T12:44:14.755Z,101149.84
2018-12-11T12:46:20.953Z,101152.84
2018-12-11T12:48:27.064Z,101161.95
2018-12-11T12:50:34.237Z,101158.84
2018-12-11T12:52:41.207Z,101156.58
2018-12-11T12:54:47.434Z,101163.52
2018-12-11T12:56:53.534Z,101160.48
2018-12-11T12:59:22.520Z,101164.41
2018-12-11T13:01:51.377Z,101160.54
2018-12-11T13:03:57.634Z,101163.63
2018-12-11T13:06:05.114Z,101153.20
2018-12-11T13:08:11.349Z,101153.64
2018-12-11T13:10:18.101Z,101150.59
2018-12-11T13:12:24.354Z,101151.91
2018-12-11T13:14:30.869Z,101157.55
2018-12-11T13:16:37.222Z,101158.44
2018-12-11T13:18:44.139Z,101152.83
2018-12-11T13:20:50.398Z,101160.17
2018-12-11T13:22:56.570Z,101157.56
2018-12-11T13:25:03.075Z,101152.78
2018-12-11T13:27:09.302Z,101148.87
2018-12-11T13:29:15.626Z,101144.52
2018-12-11T13:31:21.939Z,101144.53
2018-12-11T13:33:28.154Z,101146.31
2018-12-11T13:35:34.888Z,101152.83
2018-12-11T13:37:41.197Z,101156.73
2018-12-11T13:39:47.471Z,101158.47
2018-12-11T13:41:53.909Z,101154.95
2018-12-11T13:44:00.871Z,101162.78
2018-12-11T13:46:06.990Z,101161.04
2018-12-11T13:48:13.397Z,101161.02
2018-12-11T13:50:19.622Z,101161.84
2018-12-11T13:52:25.962Z,101154.83
2018-12-11T13:54:32.963Z,101155.63
2018-12-11T13:56:39.857Z,101156.02
2018-12-11T13:58:46.178Z,101151.67
2018-12-11T14:00:52.335Z,101160.78
2018-12-11T14:02:58.629Z,101159.48
2018-12-11T14:05:05.223Z,101158.17
2018-12-11T14:07:11.807Z,101148.14
2018-12-11T14:09:23.061Z,101155.97
2018-12-11T14:11:29.606Z,101156.83
2018-12-11T14:13:36.160Z,101157.26
2018-12-11T14:15:42.347Z,101154.27
2018-12-11T14:17:48.961Z,101157.37
2018-12-11T14:19:55.250Z,101162.17
2018-12-11T14:22:01.596Z,101161.73
2018-12-11T14:24:07.797Z,101160.42
2018-12-11T14:26:14.212Z,101154.34
2018-12-11T14:28:21.364Z,101157.37
2018-12-11T14:30:27.634Z,101153.42
2018-12-11T14:32:34.070Z,101160.79
2018-12-11T14:34:41.754Z,101155.59
2018-12-11T14:37:10.714Z,101159.98
2018-12-11T14:39:40.023Z,101152.59
2018-12-11T14:41:46.228Z,101147.81
2018-12-11T14:43:52.437Z,101154.33
2018-12-11T14:45:58.855Z,101147.39
2018-12-11T14:48:05.251Z,101153.91
2018-12-11T14:50:11.527Z,101151.29
2018-12-11T14:52:18.217Z,101153.05
2018-12-11T14:54:24.398Z,101150.94
2018-12-11T14:56:30.617Z,101148.38
2018-12-11T14:58:36.781Z,101147.95
2018-12-11T15:00:43.038Z,101148.45
2018-12-11T15:02:49.671Z,101152.84
2018-12-11T15:04:57.222Z,101148.12
2018-12-11T15:07:03.490Z,101150.78
2018-12-11T15:09:15.651Z,101143.88
2018-12-11T15:11:22.594Z,101148.66
2018-12-11T15:13:28.787Z,101146.50
2018-12-11T15:15:35.053Z,101149.58
2018-12-11T15:17:41.811Z,101146.55
2018-12-11T15:19:48.137Z,101148.23
2018-12-11T15:21:54.268Z,101144.75
2018-12-11T15:24:00.557Z,101143.45
2018-12-11T15:26:06.642Z,101155.56
2018-12-11T15:28:12.738Z,101156.86
2018-12-11T15:30:19.302Z,101152.56
2018-12-11T15:32:25.819Z,101153.86
2018-12-11T15:34:31.931Z,101159.47
2018-12-11T15:36:38.474Z,101156.86
2018-12-11T15:38:44.776Z,101157.30
2018-12-11T15:40:51.149Z,101168.10
2018-12-11T15:43:20.121Z,101154.20
2018-12-11T15:45:49.254Z,101153.77
2018-12-11T15:47:55.422Z,101158.97
2018-12-11T15:50:01.583Z,101153.33
2018-12-11T15:52:07.764Z,101155.45
2018-12-11T15:54:13.964Z,101151.58
2018-12-11T15:56:20.273Z,101147.73
2018-12-11T15:58:26.503Z,101151.16
2018-12-11T16:00:32.666Z,101161.16
2018-12-11T16:02:39.276Z,101158.59
2018-12-11T16:04:45.520Z,101158.21
2018-12-11T16:06:51.814Z,101160.83
2018-12-11T16:08:58.082Z,101163.91
2018-12-11T16:11:04.277Z,101156.54
2018-12-11T16:13:10.461Z,101157.88
2018-12-11T16:15:16.613Z,101150.08
2018-12-11T16:17:22.886Z,101153.16
2018-12-11T16:19:29.572Z,101156.25
2018-12-11T16:21:36.036Z,101154.56
2018-12-11T16:23:42.514Z,101148.96
2018-12-11T16:25:48.771Z,101152.45
2018-12-11T16:27:55.010Z,101154.66
2018-12-11T16:30:01.797Z,101165.07
2018-12-11T16:34:25.812Z,101161.14
2018-12-11T16:36:32.067Z,101164.64
2018-12-11T16:38:38.479Z,101164.20
2018-12-11T16:40:45.171Z,101162.47
2018-12-11T16:43:14.279Z,101168.11
2018-12-11T16:45:42.544Z,101177.62
2018-12-11T16:47:49.166Z,101178.93
2018-12-11T16:49:55.420Z,101180.27
2018-12-11T16:52:01.759Z,101185.91
2018-12-11T16:54:07.978Z,101185.05
2018-12-11T16:56:14.694Z,101182.87
2018-12-11T16:58:21.093Z,101192.86
2018-12-11T17:00:49.579Z,101196.77
2018-12-11T17:03:18.112Z,101195.85
2018-12-11T17:05:25.051Z,101209.34
2018-12-11T17:07:32.365Z,101214.94
2018-12-11T17:09:42.271Z,101221.45
2018-12-11T17:11:48.974Z,101223.58
2018-12-11T17:13:55.256Z,101222.27
2018-12-11T17:16:01.532Z,101225.27
2018-12-11T17:18:08.231Z,101230.01
2018-12-11T17:20:14.524Z,101229.58
2018-12-11T17:22:20.635Z,101225.23
2018-12-11T17:24:26.839Z,101225.23
2018-12-11T17:26:32.973Z,101226.09
2018-12-11T17:28:39.531Z,101226.97
2018-12-11T17:30:46.048Z,101226.53
2018-12-11T17:32:52.310Z,101224.32
2018-12-11T17:34:58.462Z,101218.67
2018-12-11T17:37:04.765Z,101215.63
2018-12-11T17:39:10.944Z,101209.13
2018-12-11T17:41:17.203Z,101212.16
2018-12-11T17:43:23.658Z,101214.38
2018-12-11T17:45:29.812Z,101222.67
2018-12-11T17:47:36.186Z,101224.88
2018-12-11T17:49:43.783Z,101231.43
2018-12-11T17:51:50.021Z,101221.02
2018-12-11T17:53:56.394Z,101228.39
2018-12-11T17:56:02.708Z,101231.00
2018-12-11T17:58:10.007Z,101246.59
2018-12-11T18:02:38.571Z,101240.55
2018-12-11T18:05:14.864Z,101237.08
2018-12-11T18:07:43.354Z,101234.98
2018-12-11T18:09:49.645Z,101232.42
2018-12-11T18:11:55.978Z,101236.39
2018-12-11T18:14:02.568Z,101235.12
2018-12-11T18:16:10.772Z,101234.69
2018-12-11T18:18:17.036Z,101235.16
2018-12-11T18:20:23.654Z,101235.59
2018-12-11T18:22:29.829Z,101241.70
2018-12-11T18:24:35.945Z,101234.78
2018-12-11T18:26:42.180Z,101233.52
2018-12-11T18:28:48.441Z,101236.14
2018-12-11T18:33:28.198Z,101245.27
2018-12-11T18:35:34.549Z,101237.91
2018-12-11T18:37:41.403Z,101234.44
2018-12-11T18:39:47.705Z,101236.59
2018-12-11T18:42:16.153Z,101233.59
2018-12-11T18:44:45.506Z,101228.39
2018-12-11T18:46:52.393Z,101229.66
2018-12-11T18:48:58.918Z,101220.56
2018-12-11T18:51:06.122Z,101220.13
2018-12-11T18:53:13.241Z,101220.53
2018-12-11T18:55:19.555Z,101217.94
2018-12-11T18:57:25.928Z,101219.66
2018-12-11T18:59:32.277Z,101213.16
2018-12-11T19:01:41.667Z,101208.86
2018-12-11T19:04:09.797Z,101209.72
2018-12-11T19:06:39.038Z,101205.84
2018-12-11T19:08:45.377Z,101215.41
2018-12-11T19:10:52.817Z,101221.94
2018-12-11T19:13:01.279Z,101224.56
2018-12-11T19:15:08.004Z,101231.09
2018-12-11T19:17:14.483Z,101229.78
2018-12-11T19:19:20.878Z,101228.05
2018-12-11T19:21:27.292Z,101231.52
2018-12-11T19:23:45.803Z,101241.05
2018-12-11T19:25:52.343Z,101235.44
2018-12-11T19:27:58.668Z,101243.23
2018-12-11T19:30:05.981Z,101234.59
2018-12-11T19:32:14.323Z,101233.29
2018-12-11T19:36:55.713Z,101232.86
2018-12-11T19:39:07.553Z,101229.41
2018-12-11T19:43:42.519Z,101228.57
2018-12-11T19:45:58.837Z,101226.42
2018-12-11T19:48:08.400Z,101219.05
2018-12-11T19:50:17.896Z,101223.41
2018-12-11T19:52:27.632Z,101213.87
2018-12-11T19:54:38.332Z,101206.96
2018-12-11T19:59:20.333Z,101203.48
2018-12-11T20:01:29.211Z,101204.38
2018-12-11T20:04:01.885Z,101203.95
2018-12-11T20:06:34.897Z,101206.13
2018-12-11T20:08:42.908Z,101207.87
2018-12-11T20:10:54.402Z,101215.67
2018-12-11T20:13:02.158Z,101210.48
2018-12-11T20:15:11.052Z,101219.56
2018-12-11T20:20:02.264Z,101206.13
2018-12-11T20:22:11.175Z,101200.50
2018-12-11T20:24:37.483Z,101197.91
2018-12-11T20:26:57.968Z,101197.92
2018-12-11T20:29:11.975Z,101193.17
2018-12-11T20:31:19.903Z,101203.12
2018-12-11T20:33:28.509Z,101196.62
2018-12-11T20:35:39.320Z,101202.27
2018-12-11T20:37:48.453Z,101208.33
2018-12-11T20:39:55.162Z,101208.33
2018-12-11T20:42:01.855Z,101206.59
2018-12-11T20:44:08.258Z,101212.20
2018-12-11T20:46:14.624Z,101204.84
2018-12-11T20:48:21.864Z,101211.80
2018-12-11T20:50:29.233Z,101215.25
2018-12-11T20:52:36.127Z,101215.27
2018-12-11T20:54:42.379Z,101218.30
2018-12-11T20:56:50.844Z,101222.63
2018-12-11T20:59:19.779Z,101220.02
2018-12-11T21:01:48.112Z,101220.88
2018-12-11T21:03:54.291Z,101216.98
2018-12-11T21:06:00.458Z,101213.51
2018-12-11T21:08:07.081Z,101223.03
2018-12-11T21:10:13.666Z,101219.14
2018-12-11T21:12:20.122Z,101226.08
2018-12-11T21:14:26.287Z,101226.09
2018-12-11T21:16:32.761Z,101230.39
2018-12-11T21:18:39.444Z,101229.09
2018-12-11T21:20:45.639Z,101225.64
2018-12-11T21:22:51.977Z,101226.08
2018-12-11T21:27:17.420Z,101227.35
2018-12-11T21:29:24.433Z,101225.62
2018-12-11T21:31:30.631Z,101224.78
2018-12-11T21:35:54.886Z,101222.60
2018-12-11T21:38:01.939Z,101218.27
2018-12-11T21:40:08.787Z,101218.72
2018-12-11T21:42:15.184Z,101217.42
2018-12-11T21:44:21.508Z,101214.38
2018-12-11T21:46:27.993Z,101209.64
2018-12-11T21:48:34.530Z,101208.76
2018-12-11T21:50:40.828Z,101211.78
2018-12-11T21:52:47.141Z,101209.62
2018-12-11T21:54:53.335Z,101208.32
2018-12-11T21:57:00.174Z,101217.86
2018-12-11T21:59:06.446Z,101207.48
2018-12-11T22:01:12.637Z,101208.35
2018-12-11T22:05:36.317Z,101213.09
2018-12-11T22:07:43.774Z,101220.87
2018-12-11T22:09:50.305Z,101212.67
2018-12-11T22:11:56.787Z,101217.44
2018-12-11T22:14:03.502Z,101220.03
2018-12-11T22:16:10.415Z,101220.44
2018-12-11T22:18:17.192Z,101219.59
2018-12-11T22:20:23.399Z,101218.30
2018-12-11T22:22:30.486Z,101214.84
2018-12-11T22:24:58.773Z,101215.70
2018-12-11T22:27:27.834Z,101217.42
2018-12-11T22:29:33.929Z,101214.83
2018-12-11T22:31:40.051Z,101212.20
2018-12-11T22:33:46.366Z,101216.98
2018-12-11T22:35:52.550Z,101213.52
2018-12-11T22:37:59.668Z,101220.00
2018-12-11T22:40:06.762Z,101218.70
2018-12-11T22:42:13.167Z,101216.98
2018-12-11T22:44:19.361Z,101206.59
2018-12-11T22:46:25.565Z,101215.25
2018-12-11T22:48:36.794Z,101214.39
2018-12-11T22:50:44.021Z,101211.36
2018-12-11T22:52:50.270Z,101207.89
2018-12-11T22:54:56.717Z,101207.88
2018-12-11T22:57:03.606Z,101213.95
2018-12-11T22:59:09.843Z,101204.44
2018-12-11T23:01:16.389Z,101214.81
2018-12-11T23:03:22.471Z,101212.66
2018-12-11T23:05:51.101Z,101209.62
2018-12-11T23:08:20.267Z,101210.04
2018-12-11T23:10:26.468Z,101215.23
2018-12-11T23:12:33.037Z,101216.96
2018-12-11T23:14:39.571Z,101215.66
2018-12-11T23:16:46.115Z,101208.76
2018-12-11T23:18:52.947Z,101207.02
2018-12-11T23:20:59.231Z,101204.42
2018-12-11T23:23:05.596Z,101211.36
2018-12-11T23:25:11.785Z,101216.13
2018-12-11T23:27:24.633Z,101204.41
2018-12-11T23:29:30.704Z,101209.19
2018-12-11T23:31:37.328Z,101216.95
2018-12-11T23:33:44.773Z,101209.61
2018-12-11T23:35:50.886Z,101204.41
2018-12-11T23:37:56.989Z,101209.59
2018-12-11T23:40:03.477Z,101204.39
2018-12-11T23:42:09.808Z,101205.27
2018-12-11T23:44:16.882Z,101208.30
2018-12-11T23:46:22.996Z,101203.08
2018-12-11T23:48:29.660Z,101200.48
2018-12-11T23:50:35.818Z,101201.79
2018-12-11T23:52:42.067Z,101199.62
2018-12-11T23:54:48.168Z,101200.50
2018-12-11T23:56:54.237Z,101200.50
2018-12-11T23:59:03.190Z,101206.55
